sensor_id;sensor_type;location;lat;lon;timestamp;temperature;humidity
19248;DHT22;9758;48.640;8.148;2023-11-19T00:01:32;13.20;61.00
19248;DHT22;9758;48.640;8.148;2023-11-19T00:03:59;13.30;61.00
19248;DHT22;9758;48.640;8.148;2023-11-19T00:06:25;13.30;60.90
19248;DHT22;9758;48.640;8.148;2023-11-19T00:08:54;13.20;61.00
19248;DHT22;9758;48.640;8.148;2023-11-19T00:11:21;13.30;61.00
19248;DHT22;9758;48.640;8.148;2023-11-19T00:13:48;13.30;60.90
19248;DHT22;9758;48.640;8.148;2023-11-19T00:16:14;13.30;61.00
19248;DHT22;9758;48.640;8.148;2023-11-19T00:18:42;13.30;60.90
19248;DHT22;9758;48.640;8.148;2023-11-19T00:21:08;13.30;61.10
19248;DHT22;9758;48.640;8.148;2023-11-19T00:23:36;13.30;61.20
19248;DHT22;9758;48.640;8.148;2023-11-19T00:26:04;13.30;61.10
19248;DHT22;9758;48.640;8.148;2023-11-19T00:28:32;13.30;61.50
19248;DHT22;9758;48.640;8.148;2023-11-19T00:30:59;13.30;61.10
19248;DHT22;9758;48.640;8.148;2023-11-19T00:33:26;13.30;61.10
19248;DHT22;9758;48.640;8.148;2023-11-19T00:35:52;13.40;61.30
19248;DHT22;9758;48.640;8.148;2023-11-19T00:38:27;13.40;61.20
19248;DHT22;9758;48.640;8.148;2023-11-19T00:40:54;13.40;61.10
19248;DHT22;9758;48.640;8.148;2023-11-19T00:43:22;13.40;61.10
19248;DHT22;9758;48.640;8.148;2023-11-19T00:45:49;13.40;61.10
19248;DHT22;9758;48.640;8.148;2023-11-19T00:48:16;13.40;61.20
19248;DHT22;9758;48.640;8.148;2023-11-19T00:50:43;13.50;61.30
19248;DHT22;9758;48.640;8.148;2023-11-19T00:53:11;13.50;61.30
19248;DHT22;9758;48.640;8.148;2023-11-19T00:55:37;13.50;61.30
19248;DHT22;9758;48.640;8.148;2023-11-19T00:58:04;13.50;61.30
19248;DHT22;9758;48.640;8.148;2023-11-19T01:00:32;13.50;61.20
19248;DHT22;9758;48.640;8.148;2023-11-19T01:03:00;13.50;61.10
19248;DHT22;9758;48.640;8.148;2023-11-19T01:05:27;13.50;61.30
19248;DHT22;9758;48.640;8.148;2023-11-19T01:07:53;13.50;61.30
19248;DHT22;9758;48.640;8.148;2023-11-19T01:10:20;13.60;61.80
19248;DHT22;9758;48.640;8.148;2023-11-19T01:12:47;13.50;61.30
19248;DHT22;9758;48.640;8.148;2023-11-19T01:15:14;13.50;61.40
19248;DHT22;9758;48.640;8.148;2023-11-19T01:17:45;13.60;61.60
19248;DHT22;9758;48.640;8.148;2023-11-19T01:20:12;13.60;61.30
19248;DHT22;9758;48.640;8.148;2023-11-19T01:22:40;13.60;61.40
19248;DHT22;9758;48.640;8.148;2023-11-19T01:25:07;13.60;61.50
19248;DHT22;9758;48.640;8.148;2023-11-19T01:27:33;13.60;61.50
19248;DHT22;9758;48.640;8.148;2023-11-19T01:30:01;13.60;61.60
19248;DHT22;9758;48.640;8.148;2023-11-19T01:32:29;13.60;61.50
19248;DHT22;9758;48.640;8.148;2023-11-19T01:34:57;13.60;61.60
19248;DHT22;9758;48.640;8.148;2023-11-19T01:37:24;13.70;61.60
19248;DHT22;9758;48.640;8.148;2023-11-19T01:39:51;13.70;61.40
19248;DHT22;9758;48.640;8.148;2023-11-19T01:42:17;13.70;61.70
19248;DHT22;9758;48.640;8.148;2023-11-19T01:44:56;13.70;61.50
19248;DHT22;9758;48.640;8.148;2023-11-19T01:47:24;13.70;61.60
19248;DHT22;9758;48.640;8.148;2023-11-19T01:49:51;13.70;61.60
19248;DHT22;9758;48.640;8.148;2023-11-19T01:52:20;13.70;61.50
19248;DHT22;9758;48.640;8.148;2023-11-19T01:54:47;13.70;61.40
19248;DHT22;9758;48.640;8.148;2023-11-19T01:57:14;13.70;61.50
19248;DHT22;9758;48.640;8.148;2023-11-19T01:59:41;13.80;61.70
19248;DHT22;9758;48.640;8.148;2023-11-19T02:02:08;13.70;62.30
19248;DHT22;9758;48.640;8.148;2023-11-19T02:04:35;13.80;61.60
19248;DHT22;9758;48.640;8.148;2023-11-19T02:07:02;13.70;61.60
19248;DHT22;9758;48.640;8.148;2023-11-19T02:09:30;13.80;61.70
19248;DHT22;9758;48.640;8.148;2023-11-19T02:11:57;13.80;61.80
19248;DHT22;9758;48.640;8.148;2023-11-19T02:14:25;13.80;61.50
19248;DHT22;9758;48.640;8.148;2023-11-19T02:16:52;13.80;61.70
19248;DHT22;9758;48.640;8.148;2023-11-19T02:19:19;13.80;61.70
19248;DHT22;9758;48.640;8.148;2023-11-19T02:21:46;13.80;61.70
19248;DHT22;9758;48.640;8.148;2023-11-19T02:24:14;13.80;61.60
19248;DHT22;9758;48.640;8.148;2023-11-19T02:26:51;13.80;61.60
19248;DHT22;9758;48.640;8.148;2023-11-19T02:29:20;13.90;61.70
19248;DHT22;9758;48.640;8.148;2023-11-19T02:31:47;13.90;61.60
19248;DHT22;9758;48.640;8.148;2023-11-19T02:34:14;13.80;61.60
19248;DHT22;9758;48.640;8.148;2023-11-19T02:36:41;13.90;62.00
19248;DHT22;9758;48.640;8.148;2023-11-19T02:39:08;13.80;61.60
19248;DHT22;9758;48.640;8.148;2023-11-19T02:41:38;13.90;61.70
19248;DHT22;9758;48.640;8.148;2023-11-19T02:44:05;13.90;61.90
19248;DHT22;9758;48.640;8.148;2023-11-19T02:46:34;13.80;61.60
19248;DHT22;9758;48.640;8.148;2023-11-19T02:49:00;13.90;61.70
19248;DHT22;9758;48.640;8.148;2023-11-19T02:51:27;13.90;61.90
19248;DHT22;9758;48.640;8.148;2023-11-19T02:53:55;13.90;61.70
19248;DHT22;9758;48.640;8.148;2023-11-19T02:56:22;13.90;61.70
19248;DHT22;9758;48.640;8.148;2023-11-19T02:58:52;13.80;61.80
19248;DHT22;9758;48.640;8.148;2023-11-19T03:01:22;13.90;62.00
19248;DHT22;9758;48.640;8.148;2023-11-19T03:03:56;13.90;61.70
19248;DHT22;9758;48.640;8.148;2023-11-19T03:06:23;13.90;61.90
19248;DHT22;9758;48.640;8.148;2023-11-19T03:08:50;13.90;61.90
19248;DHT22;9758;48.640;8.148;2023-11-19T03:11:17;13.90;61.90
19248;DHT22;9758;48.640;8.148;2023-11-19T03:13:44;13.90;62.00
19248;DHT22;9758;48.640;8.148;2023-11-19T03:16:12;13.90;62.00
19248;DHT22;9758;48.640;8.148;2023-11-19T03:18:38;13.90;62.00
19248;DHT22;9758;48.640;8.148;2023-11-19T03:21:07;14.00;62.00
19248;DHT22;9758;48.640;8.148;2023-11-19T03:23:34;14.00;62.00
19248;DHT22;9758;48.640;8.148;2023-11-19T03:26:01;14.00;62.40
19248;DHT22;9758;48.640;8.148;2023-11-19T03:28:31;14.00;62.10
19248;DHT22;9758;48.640;8.148;2023-11-19T03:30:58;14.00;62.00
19248;DHT22;9758;48.640;8.148;2023-11-19T03:33:24;14.10;62.20
19248;DHT22;9758;48.640;8.148;2023-11-19T03:35:53;14.10;62.10
19248;DHT22;9758;48.640;8.148;2023-11-19T03:38:23;14.10;62.10
19248;DHT22;9758;48.640;8.148;2023-11-19T03:40:49;14.10;62.00
19248;DHT22;9758;48.640;8.148;2023-11-19T03:43:16;14.10;61.90
19248;DHT22;9758;48.640;8.148;2023-11-19T03:45:44;14.20;62.00
19248;DHT22;9758;48.640;8.148;2023-11-19T03:48:11;14.20;62.00
19248;DHT22;9758;48.640;8.148;2023-11-19T03:50:38;14.20;62.20
19248;DHT22;9758;48.640;8.148;2023-11-19T03:53:05;14.20;62.00
19248;DHT22;9758;48.640;8.148;2023-11-19T03:55:33;14.20;62.10
19248;DHT22;9758;48.640;8.148;2023-11-19T03:58:00;14.20;62.20
19248;DHT22;9758;48.640;8.148;2023-11-19T04:00:27;14.20;62.00
19248;DHT22;9758;48.640;8.148;2023-11-19T04:02:53;14.20;62.20
19248;DHT22;9758;48.640;8.148;2023-11-19T04:05:20;14.20;62.00
19248;DHT22;9758;48.640;8.148;2023-11-19T04:07:47;14.30;62.10
19248;DHT22;9758;48.640;8.148;2023-11-19T04:10:14;14.30;62.10
19248;DHT22;9758;48.640;8.148;2023-11-19T04:12:43;14.30;62.20
19248;DHT22;9758;48.640;8.148;2023-11-19T04:15:11;14.30;62.10
19248;DHT22;9758;48.640;8.148;2023-11-19T04:17:38;14.30;62.10
19248;DHT22;9758;48.640;8.148;2023-11-19T04:20:06;14.30;62.00
19248;DHT22;9758;48.640;8.148;2023-11-19T04:22:36;14.30;61.90
19248;DHT22;9758;48.640;8.148;2023-11-19T04:25:03;14.40;62.00
19248;DHT22;9758;48.640;8.148;2023-11-19T04:27:30;14.40;62.00
19248;DHT22;9758;48.640;8.148;2023-11-19T04:30:07;14.40;62.00
19248;DHT22;9758;48.640;8.148;2023-11-19T04:32:36;14.40;62.00
19248;DHT22;9758;48.640;8.148;2023-11-19T04:35:03;14.40;62.00
19248;DHT22;9758;48.640;8.148;2023-11-19T04:37:30;14.40;62.00
19248;DHT22;9758;48.640;8.148;2023-11-19T04:39:56;14.40;62.00
19248;DHT22;9758;48.640;8.148;2023-11-19T04:42:24;14.50;62.00
19248;DHT22;9758;48.640;8.148;2023-11-19T04:44:51;14.50;62.00
19248;DHT22;9758;48.640;8.148;2023-11-19T04:47:19;14.50;61.90
19248;DHT22;9758;48.640;8.148;2023-11-19T04:49:46;14.50;61.90
19248;DHT22;9758;48.640;8.148;2023-11-19T04:52:13;14.50;62.30
19248;DHT22;9758;48.640;8.148;2023-11-19T04:54:42;14.50;62.00
19248;DHT22;9758;48.640;8.148;2023-11-19T04:57:09;14.50;62.60
19248;DHT22;9758;48.640;8.148;2023-11-19T04:59:37;14.50;62.00
19248;DHT22;9758;48.640;8.148;2023-11-19T05:02:04;14.60;62.00
19248;DHT22;9758;48.640;8.148;2023-11-19T05:04:33;14.60;62.00
19248;DHT22;9758;48.640;8.148;2023-11-19T05:07:00;14.60;62.00
19248;DHT22;9758;48.640;8.148;2023-11-19T05:09:27;14.60;62.00
19248;DHT22;9758;48.640;8.148;2023-11-19T05:11:54;14.60;62.00
19248;DHT22;9758;48.640;8.148;2023-11-19T05:14:20;14.60;61.90
19248;DHT22;9758;48.640;8.148;2023-11-19T05:16:47;14.60;62.00
19248;DHT22;9758;48.640;8.148;2023-11-19T05:19:14;14.60;62.10
19248;DHT22;9758;48.640;8.148;2023-11-19T05:21:43;14.70;62.00
19248;DHT22;9758;48.640;8.148;2023-11-19T05:24:10;14.60;62.00
19248;DHT22;9758;48.640;8.148;2023-11-19T05:26:37;14.70;62.10
19248;DHT22;9758;48.640;8.148;2023-11-19T05:29:04;14.70;62.10
19248;DHT22;9758;48.640;8.148;2023-11-19T05:31:31;14.70;62.20
19248;DHT22;9758;48.640;8.148;2023-11-19T05:33:58;14.70;62.00
19248;DHT22;9758;48.640;8.148;2023-11-19T05:36:24;14.70;62.00
19248;DHT22;9758;48.640;8.148;2023-11-19T05:38:52;14.70;62.00
19248;DHT22;9758;48.640;8.148;2023-11-19T05:41:19;14.80;62.00
19248;DHT22;9758;48.640;8.148;2023-11-19T05:43:46;14.80;62.00
19248;DHT22;9758;48.640;8.148;2023-11-19T05:46:12;14.80;62.00
19248;DHT22;9758;48.640;8.148;2023-11-19T05:48:39;14.80;62.00
19248;DHT22;9758;48.640;8.148;2023-11-19T05:51:06;14.90;62.00
19248;DHT22;9758;48.640;8.148;2023-11-19T05:53:33;14.90;61.90
19248;DHT22;9758;48.640;8.148;2023-11-19T05:56:01;14.90;61.90
19248;DHT22;9758;48.640;8.148;2023-11-19T05:58:29;14.90;61.90
19248;DHT22;9758;48.640;8.148;2023-11-19T06:00:58;14.90;61.90
19248;DHT22;9758;48.640;8.148;2023-11-19T06:03:26;14.90;62.00
19248;DHT22;9758;48.640;8.148;2023-11-19T06:05:53;14.90;61.90
19248;DHT22;9758;48.640;8.148;2023-11-19T06:08:20;14.90;61.90
19248;DHT22;9758;48.640;8.148;2023-11-19T06:10:47;14.90;62.00
19248;DHT22;9758;48.640;8.148;2023-11-19T06:13:17;14.90;62.00
19248;DHT22;9758;48.640;8.148;2023-11-19T06:15:45;14.90;62.00
19248;DHT22;9758;48.640;8.148;2023-11-19T06:18:11;14.90;62.00
19248;DHT22;9758;48.640;8.148;2023-11-19T06:20:40;14.90;61.90
19248;DHT22;9758;48.640;8.148;2023-11-19T06:23:06;14.90;61.70
19248;DHT22;9758;48.640;8.148;2023-11-19T06:25:33;14.90;61.90
19248;DHT22;9758;48.640;8.148;2023-11-19T06:28:01;15.00;61.90
19248;DHT22;9758;48.640;8.148;2023-11-19T06:30:29;15.00;61.90
19248;DHT22;9758;48.640;8.148;2023-11-19T06:32:57;15.00;61.90
19248;DHT22;9758;48.640;8.148;2023-11-19T06:35:24;14.90;61.80
19248;DHT22;9758;48.640;8.148;2023-11-19T06:37:51;15.00;61.90
19248;DHT22;9758;48.640;8.148;2023-11-19T06:40:18;15.00;61.90
19248;DHT22;9758;48.640;8.148;2023-11-19T06:42:44;15.00;62.00
19248;DHT22;9758;48.640;8.148;2023-11-19T06:45:11;15.00;61.90
19248;DHT22;9758;48.640;8.148;2023-11-19T06:47:39;15.00;61.90
19248;DHT22;9758;48.640;8.148;2023-11-19T06:50:07;15.00;61.90
19248;DHT22;9758;48.640;8.148;2023-11-19T06:52:34;14.90;61.90
19248;DHT22;9758;48.640;8.148;2023-11-19T06:55:03;15.00;62.40
19248;DHT22;9758;48.640;8.148;2023-11-19T06:57:30;15.00;62.20
19248;DHT22;9758;48.640;8.148;2023-11-19T06:59:57;15.00;62.00
19248;DHT22;9758;48.640;8.148;2023-11-19T07:02:24;15.00;62.20
19248;DHT22;9758;48.640;8.148;2023-11-19T07:04:52;15.10;62.10
19248;DHT22;9758;48.640;8.148;2023-11-19T07:07:31;15.00;62.00
19248;DHT22;9758;48.640;8.148;2023-11-19T07:09:58;15.10;62.40
19248;DHT22;9758;48.640;8.148;2023-11-19T07:12:24;15.10;62.10
19248;DHT22;9758;48.640;8.148;2023-11-19T07:14:52;15.10;62.10
19248;DHT22;9758;48.640;8.148;2023-11-19T07:17:18;15.20;62.20
19248;DHT22;9758;48.640;8.148;2023-11-19T07:19:46;15.20;62.00
19248;DHT22;9758;48.640;8.148;2023-11-19T07:22:14;15.20;62.00
19248;DHT22;9758;48.640;8.148;2023-11-19T07:24:41;15.20;62.00
19248;DHT22;9758;48.640;8.148;2023-11-19T07:27:08;15.30;62.00
19248;DHT22;9758;48.640;8.148;2023-11-19T07:29:35;15.30;62.00
19248;DHT22;9758;48.640;8.148;2023-11-19T07:32:02;15.30;61.90
19248;DHT22;9758;48.640;8.148;2023-11-19T07:34:30;15.30;61.80
19248;DHT22;9758;48.640;8.148;2023-11-19T07:36:57;15.40;61.80
19248;DHT22;9758;48.640;8.148;2023-11-19T07:39:29;15.40;61.70
19248;DHT22;9758;48.640;8.148;2023-11-19T07:41:55;15.40;61.70
19248;DHT22;9758;48.640;8.148;2023-11-19T07:44:22;15.40;61.70
19248;DHT22;9758;48.640;8.148;2023-11-19T07:46:50;15.50;61.70
19248;DHT22;9758;48.640;8.148;2023-11-19T07:49:16;15.50;61.70
19248;DHT22;9758;48.640;8.148;2023-11-19T07:51:43;15.50;61.60
19248;DHT22;9758;48.640;8.148;2023-11-19T07:54:10;15.50;61.60
19248;DHT22;9758;48.640;8.148;2023-11-19T07:56:38;15.60;61.60
19248;DHT22;9758;48.640;8.148;2023-11-19T07:59:05;15.60;61.60
19248;DHT22;9758;48.640;8.148;2023-11-19T08:01:32;15.60;61.50
19248;DHT22;9758;48.640;8.148;2023-11-19T08:03:58;15.60;61.50
19248;DHT22;9758;48.640;8.148;2023-11-19T08:06:40;15.60;61.50
19248;DHT22;9758;48.640;8.148;2023-11-19T08:09:07;15.60;61.50
19248;DHT22;9758;48.640;8.148;2023-11-19T08:11:40;15.70;61.50
19248;DHT22;9758;48.640;8.148;2023-11-19T08:14:07;15.70;61.50
19248;DHT22;9758;48.640;8.148;2023-11-19T08:16:34;15.70;61.40
19248;DHT22;9758;48.640;8.148;2023-11-19T08:19:01;15.70;61.40
19248;DHT22;9758;48.640;8.148;2023-11-19T08:21:28;15.70;61.40
19248;DHT22;9758;48.640;8.148;2023-11-19T08:23:55;15.70;61.40
19248;DHT22;9758;48.640;8.148;2023-11-19T08:26:22;15.70;61.40
19248;DHT22;9758;48.640;8.148;2023-11-19T08:28:50;15.70;61.40
19248;DHT22;9758;48.640;8.148;2023-11-19T08:31:17;15.70;61.40
19248;DHT22;9758;48.640;8.148;2023-11-19T08:33:44;15.70;61.40
19248;DHT22;9758;48.640;8.148;2023-11-19T08:36:15;15.80;61.40
19248;DHT22;9758;48.640;8.148;2023-11-19T08:38:42;15.80;61.40
19248;DHT22;9758;48.640;8.148;2023-11-19T08:41:09;15.80;61.40
19248;DHT22;9758;48.640;8.148;2023-11-19T08:43:35;15.80;61.40
19248;DHT22;9758;48.640;8.148;2023-11-19T08:46:09;15.80;62.10
19248;DHT22;9758;48.640;8.148;2023-11-19T08:48:36;15.80;61.40
19248;DHT22;9758;48.640;8.148;2023-11-19T08:51:03;15.90;61.40
19248;DHT22;9758;48.640;8.148;2023-11-19T08:53:30;15.90;61.30
19248;DHT22;9758;48.640;8.148;2023-11-19T08:55:57;15.90;61.30
19248;DHT22;9758;48.640;8.148;2023-11-19T08:58:24;15.90;61.30
19248;DHT22;9758;48.640;8.148;2023-11-19T09:00:50;15.90;61.20
19248;DHT22;9758;48.640;8.148;2023-11-19T09:03:18;15.90;61.20
19248;DHT22;9758;48.640;8.148;2023-11-19T09:05:45;15.90;61.20
19248;DHT22;9758;48.640;8.148;2023-11-19T09:08:12;15.90;61.20
19248;DHT22;9758;48.640;8.148;2023-11-19T09:10:39;15.90;61.20
19248;DHT22;9758;48.640;8.148;2023-11-19T09:13:06;15.90;61.30
19248;DHT22;9758;48.640;8.148;2023-11-19T09:15:33;15.90;61.20
19248;DHT22;9758;48.640;8.148;2023-11-19T09:18:00;15.90;61.20
19248;DHT22;9758;48.640;8.148;2023-11-19T09:20:28;15.90;61.20
19248;DHT22;9758;48.640;8.148;2023-11-19T09:22:58;15.90;61.20
19248;DHT22;9758;48.640;8.148;2023-11-19T09:25:24;15.90;61.20
19248;DHT22;9758;48.640;8.148;2023-11-19T09:27:51;15.90;61.20
19248;DHT22;9758;48.640;8.148;2023-11-19T09:30:18;15.90;61.20
19248;DHT22;9758;48.640;8.148;2023-11-19T09:32:44;15.90;61.20
19248;DHT22;9758;48.640;8.148;2023-11-19T09:35:11;15.90;61.20
19248;DHT22;9758;48.640;8.148;2023-11-19T09:37:42;15.90;61.30
19248;DHT22;9758;48.640;8.148;2023-11-19T09:40:10;15.90;61.30
19248;DHT22;9758;48.640;8.148;2023-11-19T09:42:43;16.00;61.40
19248;DHT22;9758;48.640;8.148;2023-11-19T09:45:14;15.90;61.30
19248;DHT22;9758;48.640;8.148;2023-11-19T09:47:44;16.00;61.40
19248;DHT22;9758;48.640;8.148;2023-11-19T09:50:15;16.00;61.40
19248;DHT22;9758;48.640;8.148;2023-11-19T09:52:44;16.00;61.30
19248;DHT22;9758;48.640;8.148;2023-11-19T09:55:11;16.00;61.40
19248;DHT22;9758;48.640;8.148;2023-11-19T09:57:39;16.00;61.40
19248;DHT22;9758;48.640;8.148;2023-11-19T10:00:07;16.00;61.40
19248;DHT22;9758;48.640;8.148;2023-11-19T10:02:36;16.00;61.30
19248;DHT22;9758;48.640;8.148;2023-11-19T10:05:05;16.00;61.30
19248;DHT22;9758;48.640;8.148;2023-11-19T10:07:33;16.10;61.20
19248;DHT22;9758;48.640;8.148;2023-11-19T10:10:01;16.00;61.10
19248;DHT22;9758;48.640;8.148;2023-11-19T10:12:30;16.00;61.20
19248;DHT22;9758;48.640;8.148;2023-11-19T10:14:58;16.00;61.20
19248;DHT22;9758;48.640;8.148;2023-11-19T10:17:27;16.10;61.20
19248;DHT22;9758;48.640;8.148;2023-11-19T10:19:55;16.10;61.20
19248;DHT22;9758;48.640;8.148;2023-11-19T10:22:22;16.00;61.10
19248;DHT22;9758;48.640;8.148;2023-11-19T10:24:49;16.10;61.20
19248;DHT22;9758;48.640;8.148;2023-11-19T10:27:18;16.10;61.20
19248;DHT22;9758;48.640;8.148;2023-11-19T10:29:45;16.10;61.20
19248;DHT22;9758;48.640;8.148;2023-11-19T10:32:13;16.10;61.10
19248;DHT22;9758;48.640;8.148;2023-11-19T10:34:41;16.10;61.10
19248;DHT22;9758;48.640;8.148;2023-11-19T10:37:27;16.20;61.20
19248;DHT22;9758;48.640;8.148;2023-11-19T10:39:54;16.20;61.20
19248;DHT22;9758;48.640;8.148;2023-11-19T10:42:23;16.20;61.20
19248;DHT22;9758;48.640;8.148;2023-11-19T10:44:49;16.30;61.90
19248;DHT22;9758;48.640;8.148;2023-11-19T10:47:19;16.30;61.20
19248;DHT22;9758;48.640;8.148;2023-11-19T10:49:46;16.30;61.20
19248;DHT22;9758;48.640;8.148;2023-11-19T10:52:17;16.40;61.20
19248;DHT22;9758;48.640;8.148;2023-11-19T10:54:50;16.40;61.10
19248;DHT22;9758;48.640;8.148;2023-11-19T10:57:20;16.50;60.90
19248;DHT22;9758;48.640;8.148;2023-11-19T10:59:49;16.40;60.80
19248;DHT22;9758;48.640;8.148;2023-11-19T11:02:20;16.40;60.80
19248;DHT22;9758;48.640;8.148;2023-11-19T11:05:00;16.40;60.90
19248;DHT22;9758;48.640;8.148;2023-11-19T11:07:29;16.40;61.00
19248;DHT22;9758;48.640;8.148;2023-11-19T11:09:58;16.40;61.10
19248;DHT22;9758;48.640;8.148;2023-11-19T11:12:25;16.50;61.20
19248;DHT22;9758;48.640;8.148;2023-11-19T11:14:55;16.50;61.10
19248;DHT22;9758;48.640;8.148;2023-11-19T11:17:24;16.60;60.90
19248;DHT22;9758;48.640;8.148;2023-11-19T11:19:52;16.50;60.80
19248;DHT22;9758;48.640;8.148;2023-11-19T11:22:21;16.50;60.70
19248;DHT22;9758;48.640;8.148;2023-11-19T11:25:10;16.50;60.70
19248;DHT22;9758;48.640;8.148;2023-11-19T11:28:17;16.50;60.80
19248;DHT22;9758;48.640;8.148;2023-11-19T11:31:00;16.40;60.90
19248;DHT22;9758;48.640;8.148;2023-11-19T11:33:39;16.50;60.90
19248;DHT22;9758;48.640;8.148;2023-11-19T11:36:15;16.50;60.90
19248;DHT22;9758;48.640;8.148;2023-11-19T11:38:48;16.60;60.90
19248;DHT22;9758;48.640;8.148;2023-11-19T11:41:16;16.60;60.80
19248;DHT22;9758;48.640;8.148;2023-11-19T11:43:44;16.60;60.80
19248;DHT22;9758;48.640;8.148;2023-11-19T11:49:13;16.70;60.60
19248;DHT22;9758;48.640;8.148;2023-11-19T11:52:01;16.80;60.70
19248;DHT22;9758;48.640;8.148;2023-11-19T11:54:29;16.80;60.70
19248;DHT22;9758;48.640;8.148;2023-11-19T11:57:10;16.90;60.70
19248;DHT22;9758;48.640;8.148;2023-11-19T11:59:47;17.00;60.60
19248;DHT22;9758;48.640;8.148;2023-11-19T12:02:15;17.00;60.40
19248;DHT22;9758;48.640;8.148;2023-11-19T12:04:47;17.00;60.40
19248;DHT22;9758;48.640;8.148;2023-11-19T12:07:17;17.00;60.30
19248;DHT22;9758;48.640;8.148;2023-11-19T12:09:48;17.10;60.30
19248;DHT22;9758;48.640;8.148;2023-11-19T12:12:19;17.00;60.20
19248;DHT22;9758;48.640;8.148;2023-11-19T12:15:06;17.00;60.10
19248;DHT22;9758;48.640;8.148;2023-11-19T12:17:43;17.00;60.00
19248;DHT22;9758;48.640;8.148;2023-11-19T12:20:12;17.00;60.00
19248;DHT22;9758;48.640;8.148;2023-11-19T12:22:41;16.90;60.00
19248;DHT22;9758;48.640;8.148;2023-11-19T12:25:09;16.90;60.00
19248;DHT22;9758;48.640;8.148;2023-11-19T12:27:36;16.90;60.10
19248;DHT22;9758;48.640;8.148;2023-11-19T12:30:04;16.80;60.20
19248;DHT22;9758;48.640;8.148;2023-11-19T12:32:38;16.80;60.30
19248;DHT22;9758;48.640;8.148;2023-11-19T12:35:05;16.80;60.30
19248;DHT22;9758;48.640;8.148;2023-11-19T12:37:33;16.70;60.20
19248;DHT22;9758;48.640;8.148;2023-11-19T12:40:14;16.70;60.30
19248;DHT22;9758;48.640;8.148;2023-11-19T12:42:41;16.70;60.30
19248;DHT22;9758;48.640;8.148;2023-11-19T12:45:09;16.70;60.40
19248;DHT22;9758;48.640;8.148;2023-11-19T12:47:38;16.70;60.50
19248;DHT22;9758;48.640;8.148;2023-11-19T12:50:05;16.70;60.60
19248;DHT22;9758;48.640;8.148;2023-11-19T12:52:33;16.80;60.60
19248;DHT22;9758;48.640;8.148;2023-11-19T12:55:00;16.80;60.60
19248;DHT22;9758;48.640;8.148;2023-11-19T12:57:38;16.80;60.60
19248;DHT22;9758;48.640;8.148;2023-11-19T13:00:06;16.90;60.60
19248;DHT22;9758;48.640;8.148;2023-11-19T13:02:46;17.00;60.50
19248;DHT22;9758;48.640;8.148;2023-11-19T13:05:24;17.10;60.40
19248;DHT22;9758;48.640;8.148;2023-11-19T13:07:58;17.10;60.30
19248;DHT22;9758;48.640;8.148;2023-11-19T13:10:25;17.10;60.40
19248;DHT22;9758;48.640;8.148;2023-11-19T13:13:05;17.10;60.30
19248;DHT22;9758;48.640;8.148;2023-11-19T13:15:32;17.20;60.30
19248;DHT22;9758;48.640;8.148;2023-11-19T13:17:59;17.20;60.40
19248;DHT22;9758;48.640;8.148;2023-11-19T13:20:26;17.30;60.60
19248;DHT22;9758;48.640;8.148;2023-11-19T13:22:58;17.30;60.60
19248;DHT22;9758;48.640;8.148;2023-11-19T13:25:26;17.40;60.60
19248;DHT22;9758;48.640;8.148;2023-11-19T13:27:53;17.50;60.50
19248;DHT22;9758;48.640;8.148;2023-11-19T13:30:20;17.60;60.30
19248;DHT22;9758;48.640;8.148;2023-11-19T13:32:47;17.70;60.20
19248;DHT22;9758;48.640;8.148;2023-11-19T13:35:14;17.80;60.20
19248;DHT22;9758;48.640;8.148;2023-11-19T13:37:41;17.80;60.20
19248;DHT22;9758;48.640;8.148;2023-11-19T13:40:10;17.90;60.00
19248;DHT22;9758;48.640;8.148;2023-11-19T13:42:39;18.00;60.00
19248;DHT22;9758;48.640;8.148;2023-11-19T13:45:08;18.00;59.90
19248;DHT22;9758;48.640;8.148;2023-11-19T13:47:37;18.00;59.90
19248;DHT22;9758;48.640;8.148;2023-11-19T13:50:07;18.00;59.70
19248;DHT22;9758;48.640;8.148;2023-11-19T13:52:34;18.00;59.70
19248;DHT22;9758;48.640;8.148;2023-11-19T13:55:02;17.90;59.60
19248;DHT22;9758;48.640;8.148;2023-11-19T13:57:31;17.90;59.70
19248;DHT22;9758;48.640;8.148;2023-11-19T13:59:58;17.80;59.80
19248;DHT22;9758;48.640;8.148;2023-11-19T14:02:24;17.80;59.70
19248;DHT22;9758;48.640;8.148;2023-11-19T14:04:51;17.80;59.70
19248;DHT22;9758;48.640;8.148;2023-11-19T14:07:18;17.80;59.60
19248;DHT22;9758;48.640;8.148;2023-11-19T14:09:45;17.70;59.60
19248;DHT22;9758;48.640;8.148;2023-11-19T14:12:12;17.70;59.80
19248;DHT22;9758;48.640;8.148;2023-11-19T14:14:40;17.60;59.70
19248;DHT22;9758;48.640;8.148;2023-11-19T14:17:07;17.60;59.70
19248;DHT22;9758;48.640;8.148;2023-11-19T14:19:34;17.60;59.70
19248;DHT22;9758;48.640;8.148;2023-11-19T14:22:01;17.50;59.70
19248;DHT22;9758;48.640;8.148;2023-11-19T14:24:27;17.40;59.60
19248;DHT22;9758;48.640;8.148;2023-11-19T14:26:54;17.40;59.80
19248;DHT22;9758;48.640;8.148;2023-11-19T14:29:24;17.40;59.70
19248;DHT22;9758;48.640;8.148;2023-11-19T14:31:52;17.30;59.60
19248;DHT22;9758;48.640;8.148;2023-11-19T14:34:19;17.20;59.50
19248;DHT22;9758;48.640;8.148;2023-11-19T14:36:46;17.20;59.50
19248;DHT22;9758;48.640;8.148;2023-11-19T14:39:14;17.10;59.60
19248;DHT22;9758;48.640;8.148;2023-11-19T14:41:42;17.10;59.80
19248;DHT22;9758;48.640;8.148;2023-11-19T14:44:09;17.10;59.90
19248;DHT22;9758;48.640;8.148;2023-11-19T14:46:36;17.10;59.90
19248;DHT22;9758;48.640;8.148;2023-11-19T14:49:04;17.10;59.90
19248;DHT22;9758;48.640;8.148;2023-11-19T14:51:35;17.10;59.80
19248;DHT22;9758;48.640;8.148;2023-11-19T14:54:02;17.00;59.60
19248;DHT22;9758;48.640;8.148;2023-11-19T14:56:29;16.90;59.60
19248;DHT22;9758;48.640;8.148;2023-11-19T14:58:55;16.90;59.60
19248;DHT22;9758;48.640;8.148;2023-11-19T15:01:22;16.80;59.60
19248;DHT22;9758;48.640;8.148;2023-11-19T15:03:50;16.80;59.70
19248;DHT22;9758;48.640;8.148;2023-11-19T15:06:18;16.80;59.70
19248;DHT22;9758;48.640;8.148;2023-11-19T15:08:44;16.70;60.20
19248;DHT22;9758;48.640;8.148;2023-11-19T15:11:11;16.60;59.50
19248;DHT22;9758;48.640;8.148;2023-11-19T15:13:38;16.60;59.50
19248;DHT22;9758;48.640;8.148;2023-11-19T15:16:07;16.60;59.50
19248;DHT22;9758;48.640;8.148;2023-11-19T15:18:36;16.50;59.40
19248;DHT22;9758;48.640;8.148;2023-11-19T15:21:03;16.50;59.50
19248;DHT22;9758;48.640;8.148;2023-11-19T15:23:31;16.50;59.50
19248;DHT22;9758;48.640;8.148;2023-11-19T15:25:58;16.40;59.50
19248;DHT22;9758;48.640;8.148;2023-11-19T15:28:24;16.30;59.50
19248;DHT22;9758;48.640;8.148;2023-11-19T15:30:51;16.30;59.40
19248;DHT22;9758;48.640;8.148;2023-11-19T15:33:19;16.30;59.50
19248;DHT22;9758;48.640;8.148;2023-11-19T15:35:45;16.30;59.40
19248;DHT22;9758;48.640;8.148;2023-11-19T15:38:13;16.30;59.50
19248;DHT22;9758;48.640;8.148;2023-11-19T15:40:41;16.20;59.50
19248;DHT22;9758;48.640;8.148;2023-11-19T15:43:08;16.20;59.50
19248;DHT22;9758;48.640;8.148;2023-11-19T15:45:35;16.10;59.40
19248;DHT22;9758;48.640;8.148;2023-11-19T15:48:04;16.10;59.40
19248;DHT22;9758;48.640;8.148;2023-11-19T15:50:31;16.10;59.20
19248;DHT22;9758;48.640;8.148;2023-11-19T15:52:58;16.10;59.30
19248;DHT22;9758;48.640;8.148;2023-11-19T15:55:27;16.10;59.30